Time;durP1;ratioP1;P1;durP2;ratioP2;P2;SDS_P1;SDS_P2;PMS_P1;PMS_P2;Temp;Humidity;BMP_temperature;BMP_pressure;BME280_temperature;BME280_humidity;BME280_pressure;Samples;Min_cycle;Max_cycle;Signal;HPM_P1;HPM_P2
2023/07/27 00:00:13;;;;;;;10.70;5.30;;;;;;;;;;5017753;28;20044;-80
2023/07/27 00:02:39;;;;;;;12.48;5.93;;;;;;;;;;5017553;28;20062;-80
2023/07/27 00:05:05;;;;;;;13.52;6.18;;;13.50;99.90;;;;;;5017404;28;20384;-79
2023/07/27 00:07:31;;;;;;;9.90;5.20;;;;;;;;;;5001668;28;20057;-79
2023/07/27 00:09:57;;;;;;;10.40;5.10;;;;;;;;;;5011787;28;20581;-80
2023/07/27 00:12:23;;;;;;;9.43;5.53;;;;;;;;;;5017044;28;20550;-80
2023/07/27 00:14:50;;;;;;;15.93;6.88;;;;;;;;;;5001025;28;20132;-78
2023/07/27 00:17:16;;;;;;;11.98;6.97;;;10.50;99.90;;;;;;5000840;28;20380;-79
2023/07/27 00:19:43;;;;;;;14.38;8.40;;;;;;;;;;5016479;28;20037;-79
2023/07/27 00:22:09;;;;;;;15.27;7.72;;;;;;;;;;5017720;28;20056;-80
2023/07/27 00:24:35;;;;;;;15.07;8.10;;;10.60;99.90;;;;;;5017545;28;20458;-79
2023/07/27 00:27:01;;;;;;;13.98;7.15;;;;;;;;;;5017983;28;20081;-80
2023/07/27 00:29:27;;;;;;;14.00;7.85;;;;;;;;;;5001103;28;20414;-80
2023/07/27 00:31:53;;;;;;;15.40;8.00;;;;;;;;;;5017860;28;20057;-80
2023/07/27 00:34:19;;;;;;;17.63;7.35;;;;;;;;;;5017919;28;20050;-79
2023/07/27 00:36:45;;;;;;;14.65;7.38;;;;;;;;;;5015066;28;20093;-81
2023/07/27 00:39:12;;;;;;;16.42;9.43;;;;;;;;;;5018127;28;20084;-80
2023/07/27 00:41:42;;;;;;;13.73;7.03;;;11.10;99.90;;;;;;5017764;28;20076;-79
2023/07/27 00:44:09;;;;;;;20.33;8.20;;;;;;;;;;5016296;28;20057;-80
2023/07/27 00:46:36;;;;;;;14.13;8.55;;;11.20;99.90;;;;;;5018138;28;20140;-80
2023/07/27 00:49:05;;;;;;;14.05;8.23;;;11.20;99.90;;;;;;5018287;28;20049;-80
2023/07/27 00:51:36;;;;;;;14.25;7.00;;;11.30;99.90;;;;;;5017912;28;20418;-80
2023/07/27 00:54:03;;;;;;;14.98;6.80;;;;;;;;;;5017136;28;20120;-80
2023/07/27 00:56:30;;;;;;;15.10;8.07;;;11.40;99.90;;;;;;5017968;28;20125;-80
2023/07/27 00:58:59;;;;;;;15.38;8.35;;;11.40;99.90;;;;;;5017033;28;20065;-80
2023/07/27 01:01:26;;;;;;;12.25;7.65;;;;;;;;;;5017341;28;20053;-79
2023/07/27 01:03:53;;;;;;;12.10;7.05;;;11.60;99.90;;;;;;5000105;28;20129;-80
2023/07/27 01:06:19;;;;;;;12.90;7.22;;;;;;;;;;5009865;28;20494;-80
2023/07/27 01:08:46;;;;;;;13.02;7.32;;;;;;;;;;5018183;28;20128;-80
2023/07/27 01:11:45;;;;;;;16.27;7.07;;;11.70;99.90;;;;;;5017623;28;20072;-80
2023/07/27 01:14:19;;;;;;;13.43;6.75;;;;;;;;;;5016424;28;20049;-80
2023/07/27 01:16:54;;;;;;;13.02;6.50;;;11.80;99.90;;;;;;5001934;28;20103;-80
2023/07/27 01:19:27;;;;;;;10.95;6.97;;;;;;;;;;5013521;28;20148;-80
2023/07/27 01:22:21;;;;;;;11.82;7.00;;;11.80;99.90;;;;;;5019056;28;20055;-79
2023/07/27 01:24:47;;;;;;;10.13;6.72;;;;;;;;;;5023156;28;20059;-80
2023/07/27 01:27:16;;;;;;;13.20;6.10;;;12.00;99.90;;;;;;5023322;28;20045;-80
2023/07/27 01:29:58;;;;;;;17.10;6.55;;;11.80;99.90;;;;;;5006523;28;20103;-79
2023/07/27 01:32:28;;;;;;;13.55;7.03;;;11.90;99.90;;;;;;5053117;28;20060;-79
2023/07/27 01:34:58;;;;;;;12.55;6.55;;;11.90;99.90;;;;;;5021302;28;20080;-80
2023/07/27 01:37:27;;;;;;;12.35;7.32;;;12.00;99.90;;;;;;5021226;28;20115;-81
2023/07/27 01:39:54;;;;;;;10.88;6.15;;;;;;;;;;5020956;28;20053;-79
2023/07/27 01:42:20;;;;;;;11.43;5.72;;;;;;;;;;5020950;28;20072;-80
2023/07/27 01:44:48;;;;;;;10.05;5.88;;;12.00;99.90;;;;;;5020082;28;20088;-80
2023/07/27 01:47:14;;;;;;;12.85;7.00;;;;;;;;;;5022488;28;20045;-80
2023/07/27 01:49:41;;;;;;;11.95;6.22;;;;;;;;;;5020334;28;20746;-79
2023/07/27 01:52:07;;;;;;;9.75;5.25;;;;;;;;;;5021038;28;20073;-79
2023/07/27 01:54:35;;;;;;;9.82;5.35;;;12.00;99.90;;;;;;5020147;28;20064;-80
2023/07/27 01:57:01;;;;;;;9.18;4.95;;;;;;;;;;5020485;28;20126;-79
2023/07/27 01:59:28;;;;;;;9.73;5.30;;;12.00;99.90;;;;;;5003577;28;20453;-79
2023/07/27 02:01:54;;;;;;;8.75;5.15;;;;;;;;;;5015178;28;20049;-80
2023/07/27 02:04:20;;;;;;;11.02;5.65;;;;;;;;;;5017282;28;20053;-80
2023/07/27 02:06:50;;;;;;;9.52;5.28;;;12.00;99.90;;;;;;5020529;28;20499;-80
2023/07/27 02:09:16;;;;;;;9.25;5.28;;;;;;;;;;5013689;28;20052;-79
2023/07/27 02:11:45;;;;;;;9.80;5.10;;;11.80;99.90;;;;;;5019542;28;20077;-80
2023/07/27 02:14:36;;;;;;;11.60;6.57;;;12.00;99.90;;;;;;5012715;28;20100;-80
2023/07/27 02:17:07;;;;;;;11.18;5.35;;;12.00;99.90;;;;;;5014685;28;20053;-80
2023/07/27 02:19:37;;;;;;;8.00;4.88;;;12.00;99.90;;;;;;4997837;28;20060;-80
2023/07/27 02:22:04;;;;;;;9.93;4.55;;;12.00;99.90;;;;;;5020037;28;20053;-80
2023/07/27 02:24:30;;;;;;;9.65;4.50;;;12.00;99.90;;;;;;5019883;28;20067;-79
2023/07/27 02:26:57;;;;;;;8.38;5.05;;;;;;;;;;5003183;28;20156;-80
2023/07/27 02:29:23;;;;;;;9.27;5.15;;;;;;;;;;5013834;28;20049;-80
2023/07/27 02:31:49;;;;;;;8.95;4.78;;;;;;;;;;5003470;28;20053;-79
2023/07/27 02:34:15;;;;;;;12.05;5.03;;;;;;;;;;5019233;28;20246;-80
2023/07/27 02:36:41;;;;;;;9.15;4.72;;;;;;;;;;5019448;28;20158;-80
2023/07/27 02:39:07;;;;;;;9.32;4.95;;;;;;;;;;5018974;28;20091;-79
2023/07/27 02:41:33;;;;;;;11.10;6.07;;;;;;;;;;5018982;28;20494;-80
2023/07/27 02:43:59;;;;;;;8.77;5.03;;;;;;;;;;5016801;28;20057;-79
2023/07/27 02:46:26;;;;;;;8.75;4.60;;;;;;;;;;5017914;28;20912;-80
2023/07/27 02:48:53;;;;;;;9.98;5.38;;;;;;;;;;5018159;28;20084;-81
2023/07/27 02:51:19;;;;;;;11.07;5.50;;;;;;;;;;5018393;28;20106;-79
2023/07/27 02:53:45;;;;;;;8.35;5.25;;;;;;;;;;5017947;28;20053;-80
2023/07/27 02:56:11;;;;;;;9.27;5.03;;;;;;;;;;5022685;28;20057;-79
2023/07/27 02:58:37;;;;;;;9.60;5.57;;;;;;;;;;4997263;28;20053;-79
2023/07/27 03:01:03;;;;;;;9.82;5.50;;;;;;;;;;5018324;28;20128;-79
2023/07/27 03:03:30;;;;;;;10.55;5.63;;;;;;;;;;5018888;28;20056;-80
2023/07/27 03:05:57;;;;;;;9.10;5.13;;;;;;;;;;5020394;28;20519;-80
2023/07/27 03:08:23;;;;;;;9.00;5.22;;;;;;;;;;5019033;28;20057;-80
2023/07/27 03:10:49;;;;;;;9.70;4.93;;;;;;;;;;5019281;28;20053;-80
2023/07/27 03:13:15;;;;;;;7.80;4.88;;;;;;;;;;5019479;28;20053;-80
2023/07/27 03:15:42;;;;;;;10.95;5.18;;;;;;;;;;5017405;28;20045;-80
2023/07/27 03:18:08;;;;;;;10.75;5.40;;;;;;;;;;5018272;28;20045;-81
2023/07/27 03:20:43;;;;;;;10.50;5.40;;;12.20;99.90;;;;;;5018039;28;20125;-80
2023/07/27 03:23:09;;;;;;;10.05;5.13;;;;;;;;;;5018372;28;20061;-80
2023/07/27 03:25:36;;;;;;;11.32;4.72;;;12.20;99.90;;;;;;5001885;28;20139;-79
2023/07/27 03:28:05;;;;;;;10.95;5.03;;;12.20;99.90;;;;;;5017945;28;20132;-79
2023/07/27 03:30:31;;;;;;;7.78;5.07;;;;;;;;;;5001991;28;20414;-81
2023/07/27 03:32:57;;;;;;;9.65;5.50;;;;;;;;;;5018443;28;20080;-80
2023/07/27 03:35:24;;;;;;;9.77;5.75;;;;;;;;;;5002104;28;20567;-80
2023/07/27 03:37:51;;;;;;;8.43;5.28;;;;;;;;;;5001440;28;20592;-79
2023/07/27 03:40:17;;;;;;;19.95;8.02;;;;;;;;;;4999311;28;20053;-80
2023/07/27 03:42:43;;;;;;;11.77;5.68;;;;;;;;;;5017025;28;20067;-80
2023/07/27 03:45:10;;;;;;;10.40;5.70;;;;;;;;;;5015104;28;20053;-79
2023/07/27 03:47:36;;;;;;;11.32;6.88;;;;;;;;;;5017727;28;20057;-77
2023/07/27 03:50:02;;;;;;;13.45;6.10;;;;;;;;;;5017301;28;20045;-84
2023/07/27 03:52:28;;;;;;;12.60;6.70;;;;;;;;;;5020447;28;20130;-80
2023/07/27 03:54:54;;;;;;;12.07;6.38;;;;;;;;;;5013504;28;20056;-81
2023/07/27 03:57:20;;;;;;;11.35;6.80;;;;;;;;;;5018148;28;20762;-82
2023/07/27 03:59:46;;;;;;;12.30;6.57;;;;;;;;;;5018090;28;20055;-81
2023/07/27 04:02:12;;;;;;;9.82;6.65;;;;;;;;;;5018243;28;20667;-78
2023/07/27 04:04:38;;;;;;;10.82;6.95;;;;;;;;;;5001833;28;20140;-81
2023/07/27 04:07:04;;;;;;;11.10;7.18;;;12.10;99.90;;;;;;5018476;28;20049;-81
2023/07/27 04:09:30;;;;;;;12.05;7.63;;;;;;;;;;5020952;28;20050;-82
2023/07/27 04:11:56;;;;;;;12.30;7.50;;;;;;;;;;5022493;28;20067;-82
2023/07/27 04:14:23;;;;;;;12.98;7.88;;;;;;;;;;5009605;28;20494;-79
2023/07/27 04:16:49;;;;;;;13.52;7.65;;;;;;;;;;5016259;28;20104;-79
2023/07/27 04:19:15;;;;;;;14.13;8.60;;;;;;;;;;4999235;28;20128;-81
2023/07/27 04:21:41;;;;;;;14.23;8.70;;;;;;;;;;5016894;28;20045;-79
2023/07/27 04:24:07;;;;;;;11.43;7.88;;;12.70;99.90;;;;;;5016882;28;20048;-78
2023/07/27 04:26:33;;;;;;;15.90;8.85;;;;;;;;;;5000328;28;20686;-78
2023/07/27 04:28:59;;;;;;;13.23;7.97;;;;;;;;;;5017027;28;20053;-78
2023/07/27 04:31:26;;;;;;;12.98;8.20;;;;;;;;;;5017127;28;20049;-76
2023/07/27 04:33:52;;;;;;;11.77;7.30;;;;;;;;;;4998071;28;20092;-78
2023/07/27 04:36:18;;;;;;;10.73;7.55;;;;;;;;;;5017209;28;20159;-77
2023/07/27 04:38:44;;;;;;;15.07;7.97;;;;;;;;;;5016984;28;20565;-80
2023/07/27 04:41:10;;;;;;;14.77;8.88;;;;;;;;;;5014140;28;20057;-80
2023/07/27 04:43:36;;;;;;;12.68;7.68;;;;;;;;;;5016992;28;20748;-78
2023/07/27 04:46:02;;;;;;;11.57;7.55;;;;;;;;;;5016321;28;20510;-78
2023/07/27 04:48:28;;;;;;;11.77;7.53;;;;;;;;;;5015854;28;20462;-76
2023/07/27 04:50:54;;;;;;;15.45;8.65;;;;;;;;;;5014999;28;20057;-77
2023/07/27 04:53:20;;;;;;;13.18;8.98;;;;;;;;;;5012584;28;20050;-76
2023/07/27 04:55:47;;;;;;;14.95;8.30;;;;;;;;;;5002357;28;20077;-75
2023/07/27 04:58:13;;;;;;;14.40;7.68;;;;;;;;;;5019719;28;20052;-76
2023/07/27 05:00:39;;;;;;;13.02;7.25;;;;;;;;;;5019860;28;20124;-77
2023/07/27 05:03:05;;;;;;;14.50;7.78;;;;;;;;;;5003423;28;20045;-78
2023/07/27 05:05:31;;;;;;;12.13;7.35;;;;;;;;;;5020514;28;20045;-77
2023/07/27 05:07:57;;;;;;;11.95;7.82;;;;;;;;;;5020099;28;20354;-77
2023/07/27 05:10:23;;;;;;;12.90;7.63;;;;;;;;;;5019860;28;20403;-78
2023/07/27 05:12:50;;;;;;;12.85;8.00;;;;;;;;;;5006902;28;20041;-76
2023/07/27 05:15:16;;;;;;;11.70;6.82;;;;;;;;;;5019559;28;20061;-78
2023/07/27 05:17:42;;;;;;;10.57;7.57;;;;;;;;;;5021599;28;20053;-80
2023/07/27 05:20:08;;;;;;;15.85;7.85;;;;;;;;;;5004089;28;20491;-82
2023/07/27 05:22:35;;;;;;;14.50;9.07;;;;;;;;;;5023593;28;20990;-83
2023/07/27 05:25:02;;;;;;;10.27;6.90;;;;;;;;;;5024272;28;20045;-84
2023/07/27 05:27:28;;;;;;;13.80;8.38;;;;;;;;;;5021851;28;20135;-83
2023/07/27 05:29:54;;;;;;;12.10;8.00;;;;;;;;;;5009024;28;20049;-84
2023/07/27 05:32:20;;;;;;;13.18;7.60;;;;;;;;;;5021534;28;20049;-84
2023/07/27 05:34:46;;;;;;;15.95;7.85;;;;;;;;;;5024893;28;20400;-84
2023/07/27 05:37:13;;;;;;;15.10;9.27;;;;;;;;;;5017955;28;20057;-84
2023/07/27 05:39:39;;;;;;;14.05;9.00;;;;;;;;;;5006508;28;20060;-84
2023/07/27 05:42:05;;;;;;;13.80;7.60;;;;;;;;;;5023524;28;20053;-82
2023/07/27 05:44:31;;;;;;;11.95;7.90;;;;;;;;;;5012173;28;20061;-83
2023/07/27 05:46:57;;;;;;;11.27;7.20;;;;;;;;;;5020488;28;20138;-84
2023/07/27 05:49:26;;;;;;;13.75;8.10;;;;;;;;;;5021421;28;20047;-82
2023/07/27 05:51:52;;;;;;;13.35;7.40;;;;;;;;;;5001100;28;20052;-83
2023/07/27 05:54:18;;;;;;;11.07;6.88;;;;;;;;;;5023786;28;20081;-83
2023/07/27 05:56:44;;;;;;;12.80;8.40;;;;;;;;;;5021291;28;20096;-82
2023/07/27 05:59:10;;;;;;;13.55;7.50;;;;;;;;;;5021136;28;20523;-81
2023/07/27 06:01:36;;;;;;;15.25;8.60;;;;;;;;;;5024369;28;20103;-82
2023/07/27 06:04:03;;;;;;;12.15;8.25;;;;;;;;;;5021048;28;20045;-82
2023/07/27 06:06:29;;;;;;;10.38;6.93;;;;;;;;;;5004047;28;20077;-81
2023/07/27 06:08:55;;;;;;;13.20;7.68;;;;;;;;;;5004544;28;20045;-78
2023/07/27 06:11:21;;;;;;;13.93;7.78;;;;;;;;;;5004131;28;20096;-83
2023/07/27 06:13:47;;;;;;;10.43;7.80;;;;;;;;;;5018844;28;20057;-82
2023/07/27 06:16:15;;;;;;;12.43;7.93;;;;;;;;;;5025392;28;20129;-83
2023/07/27 06:18:41;;;;;;;15.55;9.55;;;;;;;;;;5021744;28;20111;-81
2023/07/27 06:21:07;;;;;;;14.30;8.40;;;;;;;;;;5019421;28;20050;-81
2023/07/27 06:23:33;;;;;;;13.95;8.80;;;;;;;;;;5020796;28;20136;-80
2023/07/27 06:25:59;;;;;;;14.10;8.95;;;;;;;;;;5021022;28;20041;-79
2023/07/27 06:28:26;;;;;;;15.45;8.77;;;;;;;;;;5019956;28;20652;-80
2023/07/27 06:30:52;;;;;;;16.00;10.10;;;;;;;;;;5003909;28;20047;-81
2023/07/27 06:33:18;;;;;;;17.40;9.20;;;;;;;;;;5025376;28;20053;-83
2023/07/27 06:35:44;;;;;;;14.27;9.38;;;;;;;;;;5026241;28;20493;-82
2023/07/27 06:38:10;;;;;;;14.88;10.05;;;;;;;;;;5025343;28;20052;-79
2023/07/27 06:40:37;;;;;;;13.13;9.73;;;;;;;;;;5019754;28;20061;-83
2023/07/27 06:43:03;;;;;;;18.17;11.52;;;;;;;;;;5017307;28;20065;-77
2023/07/27 06:45:29;;;;;;;15.50;10.60;;;;;;;;;;5023820;28;20045;-78
2023/07/27 06:47:55;;;;;;;13.70;10.27;;;;;;;;;;5011672;28;20044;-78
2023/07/27 06:50:21;;;;;;;15.98;10.18;;;;;;;;;;5006091;28;20558;-76
2023/07/27 06:52:47;;;;;;;13.98;9.57;;;;;;;;;;5022828;28;20570;-81
2023/07/27 06:55:13;;;;;;;13.27;9.18;;;;;;;;;;5017665;28;20060;-76
2023/07/27 06:57:40;;;;;;;16.67;10.57;;;;;;;;;;5019246;28;20065;-75
2023/07/27 07:00:07;;;;;;;14.02;9.20;;;15.30;99.90;;;;;;5021751;28;20134;-79
2023/07/27 07:02:34;;;;;;;15.00;10.43;;;;;;;;;;5019762;28;20116;-78
2023/07/27 07:05:00;;;;;;;14.05;9.70;;;;;;;;;;5025320;28;20128;-78
2023/07/27 07:07:26;;;;;;;17.10;9.93;;;;;;;;;;5022141;28;20198;-77
2023/07/27 07:09:52;;;;;;;10.88;9.07;;;;;;;;;;5019872;28;20049;-77
2023/07/27 07:12:19;;;;;;;14.50;9.63;;;;;;;;;;4999654;28;20387;-80
2023/07/27 07:14:45;;;;;;;10.93;8.35;;;;;;;;;;4999670;28;20046;-81
2023/07/27 07:17:12;;;;;;;11.32;8.57;;;;;;;;;;5011275;28;20089;-73
2023/07/27 07:19:38;;;;;;;10.00;8.13;;;;;;;;;;5021801;28;20103;-79
2023/07/27 07:22:04;;;;;;;12.63;9.23;;;;;;;;;;5018527;28;20076;-80
2023/07/27 07:24:30;;;;;;;9.13;7.32;;;15.90;99.90;;;;;;5018838;28;20034;-81
2023/07/27 07:26:56;;;;;;;9.55;7.05;;;;;;;;;;5001109;28;20060;-76
2023/07/27 07:29:22;;;;;;;7.82;6.15;;;;;;;;;;5023745;28;20554;-75
2023/07/27 07:31:49;;;;;;;8.15;5.78;;;;;;;;;;5017540;28;20057;-77
2023/07/27 07:34:15;;;;;;;7.78;5.93;;;;;;;;;;5021660;28;20091;-75
2023/07/27 07:36:41;;;;;;;6.78;5.57;;;;;;;;;;5019495;28;20132;-79
2023/07/27 07:39:07;;;;;;;7.70;6.00;;;;;;;;;;5030784;28;20132;-82
2023/07/27 07:41:34;;;;;;;7.57;5.32;;;;;;;;;;5017923;28;20063;-75
2023/07/27 07:44:00;;;;;;;7.70;5.82;;;;;;;;;;4999066;28;20061;-80
2023/07/27 07:46:26;;;;;;;7.38;5.68;;;;;;;;;;5014193;28;20891;-85
2023/07/27 07:48:53;;;;;;;7.70;6.18;;;;;;;;;;5016896;28;20060;-83
2023/07/27 07:51:19;;;;;;;7.13;5.70;;;;;;;;;;5013292;28;20061;-75
2023/07/27 07:53:45;;;;;;;6.78;5.25;;;;;;;;;;5013206;28;20099;-76
2023/07/27 07:56:15;;;;;;;7.60;5.63;;;16.30;99.90;;;;;;5016543;28;20052;-79
2023/07/27 07:58:42;;;;;;;7.03;5.07;;;;;;;;;;5014570;28;20075;-75
2023/07/27 08:01:08;;;;;;;9.38;6.32;;;;;;;;;;5014162;28;20521;-77
2023/07/27 08:03:34;;;;;;;6.93;4.80;;;;;;;;;;4999908;28;20088;-77
2023/07/27 08:06:00;;;;;;;6.68;4.93;;;;;;;;;;5025543;28;20049;-80
2023/07/27 08:08:27;;;;;;;5.00;4.20;;;;;;;;;;5001861;28;20057;-77
2023/07/27 08:10:53;;;;;;;6.30;4.50;;;;;;;;;;5018934;28;20510;-78
2023/07/27 08:13:19;;;;;;;4.65;3.80;;;;;;;;;;5019454;28;20052;-77
2023/07/27 08:15:54;;;;;;;5.78;4.68;;;16.40;99.90;;;;;;5020581;28;20060;-75
2023/07/27 08:18:21;;;;;;;5.05;3.70;;;16.10;99.90;;;;;;5011291;28;20135;-77
2023/07/27 08:21:03;;;;;;;5.50;3.70;;;16.30;99.90;;;;;;5012322;28;20046;-74
2023/07/27 08:23:29;;;;;;;5.28;3.83;;;;;;;;;;5009357;28;20449;-81
2023/07/27 08:26:00;;;;;;;4.57;3.53;;;16.30;99.90;;;;;;5011222;28;21475;-81
2023/07/27 08:28:26;;;;;;;5.55;3.65;;;16.20;99.90;;;;;;5012655;28;20061;-80
2023/07/27 08:30:53;;;;;;;4.68;3.95;;;;;;;;;;5010857;28;20042;-76
2023/07/27 08:33:19;;;;;;;5.25;4.38;;;;;;;;;;5020622;28;20265;-82
2023/07/27 08:35:46;;;;;;;5.03;4.22;;;;;;;;;;5012944;28;20046;-83
2023/07/27 08:38:12;;;;;;;6.68;5.32;;;;;;;;;;5012574;28;20049;-77
2023/07/27 08:40:38;;;;;;;6.50;5.38;;;;;;;;;;5011089;28;20041;-82
2023/07/27 08:43:07;;;;;;;6.57;5.15;;;16.10;99.90;;;;;;4995868;28;20045;-77
2023/07/27 08:45:33;;;;;;;5.18;4.68;;;;;;;;;;5012869;28;20033;-73
2023/07/27 08:48:00;;;;;;;5.93;4.93;;;;;;;;;;5008542;28;20085;-76
2023/07/27 08:50:31;;;;;;;5.90;5.05;;;16.30;99.90;;;;;;5016736;28;20787;-78
2023/07/27 08:53:08;;;;;;;5.40;4.90;;;16.50;99.90;;;;;;4996393;28;20050;-75
2023/07/27 08:55:40;;;;;;;6.35;5.75;;;16.40;99.90;;;;;;4992383;28;20118;-77
2023/07/27 08:58:10;;;;;;;5.00;4.25;;;16.80;99.90;;;;;;4993178;28;20407;-76
2023/07/27 09:00:40;;;;;;;4.97;4.47;;;16.40;99.90;;;;;;5022390;28;20056;-77
2023/07/27 09:03:08;;;;;;;;;;;16.40;99.90;;;;;;4995945;28;20570;-78
2023/07/27 09:05:41;;;;;;;5.07;4.05;;;16.30;99.90;;;;;;5024132;28;19925;-78
2023/07/27 09:08:16;;;;;;;5.00;4.35;;;16.30;99.90;;;;;;5007778;28;20057;-82
2023/07/27 09:10:43;;;;;;;5.07;4.47;;;16.30;99.90;;;;;;5002072;28;20385;-78
2023/07/27 09:13:10;;;;;;;7.47;4.15;;;;;;;;;;4940475;28;20168;-78
2023/07/27 09:15:43;;;;;;;4.00;3.60;;;16.30;99.90;;;;;;4961031;28;20119;-84
2023/07/27 09:18:13;;;;;;;4.13;3.58;;;16.20;99.90;;;;;;4953307;28;20188;-77
2023/07/27 09:21:01;;;;;;;4.13;3.58;;;18.10;99.90;;;;;;4956338;28;20061;-78
2023/07/27 09:23:33;;;;;;;3.80;3.35;;;16.30;99.90;;;;;;4960991;28;20517;-84
2023/07/27 09:26:06;;;;;;;4.00;3.60;;;16.40;99.90;;;;;;4976815;28;21176;-80
2023/07/27 09:28:46;;;;;;;4.40;4.00;;;16.20;99.90;;;;;;4995244;28;20256;-77
2023/07/27 09:47:31;;;;;;;3.83;3.20;;;17.30;99.90;;;;;;4983520;28;21230;-79
2023/07/27 09:50:31;;;;;;;3.17;2.70;;;17.30;99.90;;;;;;5003035;28;21510;-78
2023/07/27 09:53:01;;;;;;;3.15;2.50;;;;;;;;;;4991663;28;20046;-81
2023/07/27 09:55:36;;;;;;;3.15;2.03;;;17.30;99.90;;;;;;5009247;28;20064;-82
2023/07/27 09:58:25;;;;;;;3.25;2.28;;;17.10;99.90;;;;;;5040058;28;20067;-84
2023/07/27 10:00:57;;;;;;;2.70;2.30;;;17.00;99.90;;;;;;4999329;28;21652;-82
2023/07/27 10:03:39;;;;;;;2.72;2.03;;;16.90;99.90;;;;;;4994295;28;20053;-84
2023/07/27 10:06:44;;;;;;;2.40;2.10;;;17.10;99.90;;;;;;4971272;28;20052;-77
2023/07/27 10:09:24;;;;;;;2.95;2.10;;;;;;;;;;4972053;28;20509;-80
2023/07/27 10:11:56;;;;;;;4.05;2.40;;;16.70;99.90;;;;;;4966062;28;20065;-81
2023/07/27 10:14:30;;;;;;;3.90;2.92;;;16.70;99.90;;;;;;4972919;28;20049;-85
2023/07/27 10:17:32;;;;;;;3.47;2.70;;;16.70;99.90;;;;;;4975641;28;20104;-81
2023/07/27 10:20:35;;;;;;;2.78;2.53;;;;;;;;;;4982196;28;20270;-80
2023/07/27 10:23:36;;;;;;;3.30;2.97;;;16.70;99.90;;;;;;4975082;28;21425;-81
2023/07/27 10:26:37;;;;;;;3.75;3.15;;;16.70;99.90;;;;;;4987420;28;20302;-79
2023/07/27 10:29:53;;;;;;;4.13;3.70;;;16.50;99.90;;;;;;4996493;28;20184;-79
2023/07/27 10:32:31;;;;;;;;;;;16.70;99.90;;;;;;5015929;28;20632;-80
2023/07/27 10:35:08;;;;;;;4.78;3.63;;;16.20;99.90;;;;;;5025449;28;19924;-81
2023/07/27 10:38:10;;;;;;;8.02;3.47;;;16.80;99.90;;;;;;5024639;28;20431;-81
2023/07/27 10:42:03;;;;;;;4.15;3.75;;;16.80;99.90;;;;;;5015715;28;20441;-80
2023/07/27 10:49:20;;;;;;;4.78;4.32;;;16.80;99.90;;;;;;4992489;28;20045;-81
2023/07/27 11:07:26;;;;;;;4.65;4.22;;;17.20;99.90;;;;;;5024492;28;20044;-80
2023/07/27 11:10:43;;;;;;;4.07;3.70;;;17.40;99.90;;;;;;4978658;28;20077;-81
2023/07/27 11:13:39;;;;;;;4.25;3.85;;;17.40;99.90;;;;;;4965092;28;20411;-80
2023/07/27 11:16:14;;;;;;;4.20;3.80;;;15.00;99.90;;;;;;4964581;28;20099;-80
2023/07/27 11:19:29;;;;;;;;;;;17.40;99.90;;;;;;4975145;28;21303;-79
2023/07/27 11:22:49;;;;;;;3.35;3.05;;;17.50;99.90;;;;;;4982245;28;20138;-81
2023/07/27 11:25:26;;;;;;;3.67;3.38;;;17.40;99.90;;;;;;4982560;28;20116;-80
2023/07/27 11:28:05;;;;;;;4.65;4.25;;;17.90;99.90;;;;;;4992666;28;20061;-81
2023/07/27 11:30:44;;;;;;;4.40;4.00;;;17.70;99.90;;;;;;5003851;28;20222;-84
2023/07/27 11:33:13;;;;;;;4.80;3.75;;;17.70;99.90;;;;;;4989415;28;20649;-81
2023/07/27 11:35:48;;;;;;;4.47;3.60;;;17.60;99.90;;;;;;5000227;28;20061;-83
2023/07/27 11:38:16;;;;;;;4.82;3.75;;;17.90;99.90;;;;;;4992440;28;20055;-85
2023/07/27 11:40:55;;;;;;;4.68;4.28;;;18.00;99.90;;;;;;4984052;28;20073;-83
2023/07/27 11:43:22;;;;;;;3.78;3.35;;;;;;;;;;4984959;28;20064;-85
2023/07/27 11:45:48;;;;;;;4.40;4.00;;;;;;;;;;4981501;28;20568;-84
2023/07/27 11:52:49;;;;;;;4.30;3.90;;;18.80;99.90;;;;;;4997664;28;20098;-87
2023/07/27 11:55:15;;;;;;;2.88;2.60;;;18.80;99.90;;;;;;4970768;28;20671;-83
2023/07/27 11:57:50;;;;;;;2.53;2.25;;;18.90;99.90;;;;;;4982826;28;20138;-84
2023/07/27 12:00:16;;;;;;;3.08;2.78;;;19.00;99.90;;;;;;4984810;28;20732;-82
2023/07/27 12:02:57;;;;;;;3.38;3.08;;;19.10;99.90;;;;;;5009595;28;20084;-83
2023/07/27 12:05:33;;;;;;;3.60;3.22;;;19.20;99.90;;;;;;5007692;28;20045;-83
2023/07/27 12:08:01;;;;;;;2.80;2.60;;;;;;;;;;4988827;28;20065;-84
2023/07/27 12:10:32;;;;;;;4.05;2.30;;;19.30;99.90;;;;;;4991292;28;20056;-83
2023/07/27 12:13:09;;;;;;;2.88;2.55;;;19.30;99.90;;;;;;4991299;28;20062;-81
2023/07/27 12:15:43;;;;;;;2.50;2.30;;;19.40;99.90;;;;;;5000901;28;20123;-82
2023/07/27 12:18:14;;;;;;;2.33;2.00;;;19.50;99.90;;;;;;5024433;28;20053;-82
2023/07/27 12:20:44;;;;;;;;;;;19.60;99.90;;;;;;5008366;28;20049;-85
2023/07/27 12:23:20;;;;;;;2.13;1.80;;;19.70;99.90;;;;;;4992350;28;19966;-82
2023/07/27 12:26:01;;;;;;;2.38;1.30;;;;;;;;;;4987889;28;20125;-80
2023/07/27 12:28:34;;;;;;;1.25;1.00;;;19.90;99.90;;;;;;5001557;28;20078;-83
2023/07/27 12:34:49;;;;;;;1.35;1.10;;;20.00;99.90;;;;;;5002407;28;20056;-85
2023/07/27 13:05:55;;;;;;;1.50;0.90;;;19.90;99.90;;;;;;5015183;28;20060;-84
2023/07/27 13:08:33;;;;;;;0.90;0.50;;;19.90;99.90;;;;;;5005559;28;20049;-82
2023/07/27 13:11:15;;;;;;;1.10;0.68;;;21.00;99.90;;;;;;4999070;28;21051;-84
2023/07/27 13:13:51;;;;;;;1.10;0.50;;;19.80;99.90;;;;;;5006146;28;20063;-84
2023/07/27 13:17:19;;;;;;;1.10;0.50;;;19.80;99.90;;;;;;4995723;28;20053;-82
2023/07/27 13:20:03;;;;;;;1.45;0.70;;;19.90;99.90;;;;;;5011920;28;20125;-84
2023/07/27 13:22:37;;;;;;;1.08;0.70;;;20.00;99.90;;;;;;5034268;28;20060;-82
2023/07/27 13:36:31;;;;;;;1.67;0.60;;;20.10;99.90;;;;;;5019504;28;20079;-83
2023/07/27 13:39:10;;;;;;;0.90;0.50;;;20.10;99.90;;;;;;4995743;28;20611;-82
2023/07/27 14:06:22;;;;;;;1.23;0.40;;;;;;;;;;5199645;22;20045;-81
2023/07/27 14:08:48;;;;;;;0.60;0.30;;;;;;;;;;4963907;28;20143;-80
2023/07/27 14:11:16;;;;;;;0.80;0.40;;;;;;;;;;4947645;28;20049;-80
2023/07/27 14:13:43;;;;;;;0.77;0.38;;;;;;;;;;4965415;28;20132;-82
2023/07/27 14:16:09;;;;;;;0.68;0.35;;;;;;;;;;4956682;28;20131;-80
2023/07/27 14:18:45;;;;;;;0.70;0.35;;;20.30;99.90;;;;;;4973508;28;20053;-78
2023/07/27 14:21:15;;;;;;;0.88;0.30;;;20.30;99.90;;;;;;4968822;28;20065;-84
2023/07/27 14:23:42;;;;;;;1.92;0.40;;;;;;;;;;4975058;28;20064;-81
2023/07/27 14:26:08;;;;;;;0.95;0.40;;;;;;;;;;4987063;28;20053;-84
2023/07/27 14:28:35;;;;;;;0.57;0.20;;;;;;;;;;4982884;28;20064;-83
2023/07/27 14:31:01;;;;;;;1.50;0.25;;;;;;;;;;4983751;28;20117;-82
2023/07/27 14:33:37;;;;;;;5.05;1.05;;;20.30;99.90;;;;;;4976441;28;20049;-86
2023/07/27 14:36:13;;;;;;;1.13;0.30;;;17.50;99.90;;;;;;4993009;28;20104;-83
2023/07/27 14:38:40;;;;;;;0.98;0.30;;;20.30;99.90;;;;;;4983081;28;20145;-81
2023/07/27 14:41:09;;;;;;;0.80;0.30;;;;;;;;;;4979211;28;20569;-83
2023/07/27 14:43:35;;;;;;;0.80;0.28;;;;;;;;;;4979674;28;20049;-83
2023/07/27 14:46:20;;;;;;;0.52;0.30;;;20.30;99.90;;;;;;4957390;28;20058;-82
2023/07/27 14:48:46;;;;;;;2.20;0.40;;;;;;;;;;4988099;28;20495;-83
2023/07/27 14:51:13;;;;;;;1.80;0.40;;;;;;;;;;4992867;28;20064;-90
2023/07/27 14:53:40;;;;;;;0.82;0.30;;;;;;;;;;5003292;28;20042;-82
2023/07/27 14:56:06;;;;;;;1.15;0.22;;;;;;;;;;4984830;28;20695;-84
2023/07/27 14:58:33;;;;;;;1.20;0.30;;;;;;;;;;4957757;28;21445;-85
2023/07/27 15:00:59;;;;;;;1.90;0.30;;;;;;;;;;4960317;28;20071;-85
2023/07/27 15:03:27;;;;;;;0.47;0.20;;;20.60;99.90;;;;;;4959322;28;20052;-83
2023/07/27 15:06:00;;;;;;;1.05;0.15;;;20.80;99.90;;;;;;4980625;28;20687;-87
2023/07/27 15:08:28;;;;;;;0.63;0.10;;;;;;;;;;4970290;28;20817;-88
2023/07/27 15:11:12;;;;;;;0.38;0.20;;;;;;;;;;4988183;28;20045;-84
2023/07/27 15:13:41;;;;;;;0.70;0.20;;;20.40;99.90;;;;;;4993685;28;20525;-84
2023/07/27 15:16:08;;;;;;;0.95;0.10;;;;;;;;;;4989939;28;20132;-83
2023/07/27 15:18:34;;;;;;;0.90;0.20;;;20.80;99.90;;;;;;4983807;28;20050;-82
2023/07/27 15:21:01;;;;;;;0.20;0.10;;;21.00;99.90;;;;;;4978767;28;20065;-90
2023/07/27 15:23:31;;;;;;;0.82;0.10;;;21.70;99.90;;;;;;5006412;28;20053;-86
2023/07/27 15:26:04;;;;;;;0.88;0.17;;;21.10;99.90;;;;;;4987642;28;20045;-81
2023/07/27 15:28:41;;;;;;;1.15;0.10;;;21.00;99.90;;;;;;4961994;28;20089;-83
2023/07/27 15:33:34;;;;;;;1.13;0.10;;;20.80;99.90;;;;;;5044287;22;20048;-84
2023/07/27 15:36:01;;;;;;;1.02;0.10;;;;;;;;;;5005869;28;20449;-84
2023/07/27 15:38:28;;;;;;;1.10;0.10;;;20.50;99.90;;;;;;5014719;28;20060;-83
2023/07/27 15:40:59;;;;;;;0.90;0.10;;;;;;;;;;5001795;28;20599;-82
2023/07/27 15:43:26;;;;;;;0.20;0.10;;;;;;;;;;5023414;28;20773;-84
2023/07/27 15:45:53;;;;;;;0.70;0.10;;;20.00;99.90;;;;;;5002512;28;20059;-83
2023/07/27 15:48:23;;;;;;;1.73;0.10;;;19.50;99.90;;;;;;5015054;28;20143;-81
2023/07/27 15:50:52;;;;;;;0.47;0.10;;;19.50;99.90;;;;;;5008043;28;20138;-81
2023/07/27 15:53:18;;;;;;;0.55;0.20;;;;;;;;;;5020491;28;20052;-81
2023/07/27 15:55:44;;;;;;;1.70;0.10;;;;;;;;;;5030661;28;20049;-83
2023/07/27 15:58:10;;;;;;;0.47;0.10;;;;;;;;;;5035975;28;20661;-82